createdAt,value
2019-01-31T00:01:54.703Z,-1.30
2019-01-31T00:04:33.840Z,-1.40
2019-01-31T00:07:12.803Z,-1.40
2019-01-31T00:09:51.926Z,-1.50
2019-01-31T00:12:31.062Z,-1.60
2019-01-31T00:15:10.064Z,-1.50
2019-01-31T00:17:48.976Z,-1.60
2019-01-31T00:20:28.084Z,-1.50
2019-01-31T00:23:06.951Z,-1.60
2019-01-31T00:25:46.798Z,-1.60
2019-01-31T00:28:25.830Z,-1.60
2019-01-31T00:31:05.118Z,-1.60
2019-01-31T00:33:44.890Z,-1.70
2019-01-31T00:36:24.680Z,-1.70
2019-01-31T00:39:03.950Z,-1.70
2019-01-31T00:41:43.624Z,-1.70
2019-01-31T00:44:22.602Z,-1.90
2019-01-31T00:47:01.850Z,-1.80
2019-01-31T00:49:41.717Z,-2.00
2019-01-31T00:52:21.006Z,-1.90
2019-01-31T00:54:59.959Z,-1.90
2019-01-31T00:57:39.116Z,-1.90
2019-01-31T01:00:18.468Z,-1.80
2019-01-31T01:02:58.274Z,-2.00
2019-01-31T01:05:37.151Z,-1.90
2019-01-31T01:08:16.251Z,-2.10
2019-01-31T01:10:55.151Z,-1.90
2019-01-31T01:13:33.998Z,-1.70
2019-01-31T01:16:13.236Z,-1.60
2019-01-31T01:18:52.995Z,-1.30
2019-01-31T01:21:32.029Z,-1.50
2019-01-31T01:24:11.050Z,-1.20
2019-01-31T01:26:50.459Z,-1.30
2019-01-31T01:29:29.543Z,-1.10
2019-01-31T01:32:08.515Z,-1.00
2019-01-31T01:34:47.642Z,-1.00
2019-01-31T01:37:27.716Z,-0.90
2019-01-31T01:40:07.596Z,-0.70
2019-01-31T01:42:46.927Z,-0.70
2019-01-31T01:45:26.681Z,-0.60
2019-01-31T01:48:05.569Z,-0.70
2019-01-31T01:50:44.815Z,-0.70
2019-01-31T01:53:23.918Z,-0.70
2019-01-31T01:56:02.908Z,-0.80
2019-01-31T01:58:41.811Z,-0.70
2019-01-31T02:01:20.915Z,-0.60
2019-01-31T02:03:59.963Z,-0.50
2019-01-31T02:06:38.963Z,-0.50
2019-01-31T02:09:18.202Z,-0.70
2019-01-31T02:11:58.375Z,-0.80
2019-01-31T02:14:37.931Z,-0.90
2019-01-31T02:17:16.964Z,-0.80
2019-01-31T02:19:56.061Z,-0.80
2019-01-31T02:22:35.102Z,-0.60
2019-01-31T02:25:15.151Z,-0.70
2019-01-31T02:27:54.978Z,-0.40
2019-01-31T02:30:34.089Z,-0.60
2019-01-31T02:33:13.356Z,-0.40
2019-01-31T02:35:53.191Z,-0.30
2019-01-31T02:38:32.165Z,-0.10
2019-01-31T02:41:11.387Z,0.20
2019-01-31T02:43:50.479Z,0.30
2019-01-31T02:46:29.412Z,0.60
2019-01-31T02:49:08.617Z,0.60
2019-01-31T02:51:48.665Z,0.60
2019-01-31T02:54:28.444Z,0.70
2019-01-31T02:57:07.697Z,0.60
2019-01-31T02:59:47.391Z,0.60
2019-01-31T03:02:26.408Z,0.50
2019-01-31T03:05:06.333Z,0.40
2019-01-31T03:07:45.627Z,0.60
2019-01-31T03:10:24.795Z,0.60
2019-01-31T03:13:03.883Z,0.70
2019-01-31T03:15:43.263Z,0.40
2019-01-31T03:18:22.886Z,0.40
2019-01-31T03:21:02.139Z,0.30
2019-01-31T03:23:41.171Z,0.30
2019-01-31T03:26:20.686Z,0.20
2019-01-31T03:29:00.824Z,0.10
2019-01-31T03:31:40.569Z,-0.10
2019-01-31T03:34:19.755Z,0.20
2019-01-31T03:36:59.755Z,0.30
2019-01-31T03:39:39.055Z,0.30
2019-01-31T03:42:18.383Z,0.20
2019-01-31T03:44:57.349Z,0.20
2019-01-31T03:47:36.827Z,0.40
2019-01-31T03:50:16.671Z,0.50
2019-01-31T03:52:56.590Z,0.30
2019-01-31T03:55:35.925Z,0.50
2019-01-31T03:58:15.092Z,0.40
2019-01-31T04:00:53.998Z,0.40
2019-01-31T04:03:33.288Z,0.40
2019-01-31T04:06:12.226Z,0.40
2019-01-31T04:08:52.060Z,0.40
2019-01-31T04:11:32.245Z,0.40
2019-01-31T04:14:11.996Z,0.40
2019-01-31T04:16:51.104Z,0.50
2019-01-31T04:19:30.193Z,0.40
2019-01-31T04:22:09.247Z,0.50
2019-01-31T04:24:48.315Z,0.20
2019-01-31T04:27:27.562Z,0.00
2019-01-31T04:30:07.469Z,-0.20
2019-01-31T04:32:46.637Z,0.00
2019-01-31T04:35:25.595Z,0.00
2019-01-31T04:38:04.670Z,0.30
2019-01-31T04:40:43.716Z,0.20
2019-01-31T04:43:23.581Z,0.10
2019-01-31T04:46:02.619Z,0.10
2019-01-31T04:48:41.614Z,0.10
2019-01-31T04:51:21.768Z,0.10
2019-01-31T04:54:01.586Z,0.40
2019-01-31T04:56:40.501Z,0.30
2019-01-31T04:59:19.609Z,0.30
2019-01-31T05:01:58.980Z,0.20
2019-01-31T05:04:38.940Z,0.30
2019-01-31T05:07:18.751Z,0.30
2019-01-31T05:09:58.049Z,0.40
2019-01-31T05:12:35.039Z,0.50
2019-01-31T05:15:20.932Z,0.40
2019-01-31T05:18:06.828Z,0.40
2019-01-31T05:20:52.728Z,0.40
2019-01-31T05:23:38.870Z,0.60
2019-01-31T05:26:24.761Z,0.40
2019-01-31T05:29:10.680Z,0.40
2019-01-31T05:31:56.885Z,0.40
2019-01-31T05:34:42.787Z,0.40
2019-01-31T05:37:28.684Z,0.40
2019-01-31T05:40:14.585Z,0.30
2019-01-31T05:43:00.600Z,0.10
2019-01-31T05:45:46.715Z,0.20
2019-01-31T05:48:32.843Z,0.50
2019-01-31T05:51:18.738Z,0.60
2019-01-31T05:54:04.650Z,0.50
2019-01-31T05:56:43.940Z,0.70
2019-01-31T05:59:23.017Z,0.60
2019-01-31T06:02:02.059Z,0.60
2019-01-31T06:04:41.195Z,0.60
2019-01-31T06:07:20.327Z,0.60
2019-01-31T06:10:00.214Z,0.70
2019-01-31T06:12:39.392Z,0.70
2019-01-31T06:15:19.498Z,1.00
2019-01-31T06:17:59.309Z,1.00
2019-01-31T06:20:38.502Z,0.90
2019-01-31T06:23:17.576Z,0.70
2019-01-31T06:25:56.521Z,0.80
2019-01-31T06:28:35.459Z,1.10
2019-01-31T06:31:15.298Z,1.10
2019-01-31T06:33:54.314Z,1.00
2019-01-31T06:36:33.278Z,0.90
2019-01-31T06:39:12.328Z,1.20
2019-01-31T06:41:51.451Z,1.40
2019-01-31T06:44:31.461Z,1.40
2019-01-31T06:47:11.401Z,1.40
2019-01-31T06:49:50.350Z,1.40
2019-01-31T06:52:29.491Z,1.30
2019-01-31T06:55:09.322Z,1.60
2019-01-31T06:57:48.417Z,1.60
2019-01-31T07:00:27.567Z,1.60
2019-01-31T07:03:06.928Z,1.50
2019-01-31T07:05:46.934Z,1.80
2019-01-31T07:08:27.146Z,1.40
2019-01-31T07:11:06.719Z,1.40
2019-01-31T07:13:45.811Z,1.30
2019-01-31T07:16:24.879Z,1.50
2019-01-31T07:19:03.987Z,1.40
2019-01-31T07:21:43.011Z,1.00
2019-01-31T07:24:09.349Z,0.90
2019-01-31T07:26:35.379Z,1.00
2019-01-31T07:29:01.397Z,0.70
2019-01-31T07:31:27.736Z,0.30
2019-01-31T07:33:53.918Z,0.60
2019-01-31T07:36:19.953Z,0.60
2019-01-31T07:38:46.074Z,0.70
2019-01-31T07:41:12.094Z,0.50
2019-01-31T07:43:38.119Z,0.60
2019-01-31T07:46:04.598Z,0.70
2019-01-31T07:48:30.613Z,0.70
2019-01-31T07:50:56.838Z,0.70
2019-01-31T07:53:23.198Z,0.70
2019-01-31T07:55:49.712Z,0.60
2019-01-31T07:58:15.975Z,0.60
2019-01-31T08:00:42.006Z,0.70
2019-01-31T08:03:08.007Z,0.70
2019-01-31T08:05:34.035Z,0.70
2019-01-31T08:08:00.458Z,0.60
2019-01-31T08:10:29.784Z,0.60
2019-01-31T08:12:55.915Z,0.60
2019-01-31T08:15:21.943Z,0.60
2019-01-31T08:17:48.245Z,0.60
2019-01-31T08:20:16.056Z,0.70
2019-01-31T08:22:42.079Z,0.70
2019-01-31T08:25:11.196Z,0.80
2019-01-31T08:27:37.307Z,0.70
2019-01-31T08:30:07.414Z,0.60
2019-01-31T08:32:33.447Z,0.70
2019-01-31T08:34:59.722Z,0.60
2019-01-31T08:37:25.757Z,0.70
2019-01-31T08:39:52.203Z,0.70
2019-01-31T08:42:18.250Z,0.70
2019-01-31T08:44:44.279Z,1.00
2019-01-31T08:47:10.563Z,1.00
2019-01-31T08:49:36.902Z,1.10
2019-01-31T08:52:02.918Z,1.10
2019-01-31T08:54:28.978Z,1.10
2019-01-31T08:56:54.991Z,1.20
2019-01-31T08:59:21.338Z,1.30
2019-01-31T09:01:47.412Z,1.30
2019-01-31T09:04:13.806Z,1.40
2019-01-31T09:06:39.850Z,1.50
2019-01-31T09:09:08.150Z,1.50
2019-01-31T09:11:34.188Z,1.60
2019-01-31T09:14:00.202Z,1.50
2019-01-31T09:16:26.235Z,1.40
2019-01-31T09:18:52.558Z,1.50
2019-01-31T09:21:25.067Z,1.40
2019-01-31T09:24:10.077Z,1.50
2019-01-31T09:26:48.783Z,1.50
2019-01-31T09:29:18.603Z,1.40
2019-01-31T09:32:09.862Z,1.50
2019-01-31T09:34:57.967Z,1.60
2019-01-31T09:37:49.023Z,1.60
2019-01-31T09:40:33.911Z,1.60
2019-01-31T09:43:21.571Z,1.60
2019-01-31T09:45:54.499Z,1.70
2019-01-31T09:48:48.990Z,1.80
2019-01-31T09:51:27.755Z,1.80
2019-01-31T09:53:57.594Z,1.90
2019-01-31T09:56:42.803Z,2.00
2019-01-31T09:59:27.850Z,1.90
2019-01-31T10:02:09.280Z,2.10
2019-01-31T10:04:59.966Z,2.10
2019-01-31T10:07:53.026Z,2.10
2019-01-31T10:10:25.759Z,2.20
2019-01-31T10:13:16.834Z,2.20
2019-01-31T10:15:52.485Z,2.20
2019-01-31T10:18:22.368Z,2.10
2019-01-31T10:20:58.379Z,2.00
2019-01-31T10:23:52.836Z,2.00
2019-01-31T10:26:39.522Z,2.00
2019-01-31T10:29:21.448Z,1.90
2019-01-31T10:32:17.283Z,1.90
2019-01-31T10:34:49.867Z,2.00
2019-01-31T10:37:29.277Z,2.20
2019-01-31T10:40:10.636Z,2.30
2019-01-31T10:42:52.141Z,2.30
2019-01-31T10:45:27.114Z,2.40
2019-01-31T10:48:30.535Z,2.40
2019-01-31T10:51:20.301Z,2.50
2019-01-31T10:53:53.447Z,2.60
2019-01-31T10:56:51.270Z,2.60
2019-01-31T10:59:45.678Z,2.60
2019-01-31T11:02:24.346Z,2.70
2019-01-31T11:05:17.599Z,2.70
2019-01-31T11:07:50.599Z,2.70
2019-01-31T11:10:32.811Z,2.70
2019-01-31T11:13:02.917Z,2.80
2019-01-31T11:15:35.469Z,2.90
2019-01-31T11:18:40.419Z,3.00
2019-01-31T11:21:37.796Z,3.10
2019-01-31T11:24:07.628Z,3.00
2019-01-31T11:26:49.298Z,3.00
2019-01-31T11:29:24.909Z,3.10
2019-01-31T11:32:03.715Z,3.20
2019-01-31T11:34:42.382Z,3.20
2019-01-31T11:37:24.030Z,3.50
2019-01-31T11:40:02.875Z,3.60
2019-01-31T11:42:35.779Z,3.50
2019-01-31T11:45:31.578Z,3.60
2019-01-31T11:48:28.542Z,3.70
2019-01-31T11:51:13.216Z,3.60
2019-01-31T11:53:49.103Z,3.70
2019-01-31T11:56:30.359Z,3.50
2019-01-31T11:59:01.734Z,3.50
2019-01-31T12:01:27.962Z,3.60
2019-01-31T12:03:55.872Z,3.60
2019-01-31T12:06:21.902Z,3.80
2019-01-31T12:08:47.925Z,3.70
2019-01-31T12:11:14.177Z,3.80
2019-01-31T12:13:40.211Z,3.80
2019-01-31T12:16:06.267Z,3.70
2019-01-31T12:18:32.289Z,3.80
2019-01-31T12:20:58.294Z,3.90
2019-01-31T12:23:24.333Z,4.00
2019-01-31T12:25:50.739Z,4.20
2019-01-31T12:28:16.786Z,4.20
2019-01-31T12:30:43.131Z,4.00
2019-01-31T12:33:09.425Z,3.90
2019-01-31T12:35:35.459Z,3.60
2019-01-31T12:38:01.471Z,3.60
2019-01-31T12:40:27.542Z,3.70
2019-01-31T12:42:54.004Z,3.70
2019-01-31T12:45:20.780Z,3.80
2019-01-31T12:47:46.778Z,3.90
2019-01-31T12:50:16.306Z,3.90
2019-01-31T12:52:42.965Z,3.80
2019-01-31T12:55:09.261Z,3.70
2019-01-31T12:57:35.475Z,3.70
2019-01-31T13:00:07.976Z,3.80
2019-01-31T13:02:34.691Z,3.70
2019-01-31T13:05:00.710Z,3.80
2019-01-31T13:07:26.983Z,3.80
2019-01-31T13:09:53.302Z,3.90
2019-01-31T13:12:19.316Z,3.90
2019-01-31T13:14:45.666Z,3.90
2019-01-31T13:17:12.140Z,3.80
2019-01-31T13:19:38.427Z,3.90
2019-01-31T13:22:05.079Z,4.00
2019-01-31T13:24:51.259Z,3.90
2019-01-31T13:27:37.266Z,3.90
2019-01-31T13:30:23.286Z,3.80
2019-01-31T13:33:02.271Z,3.90
2019-01-31T13:35:41.368Z,3.70
2019-01-31T13:38:20.863Z,4.00
2019-01-31T13:41:00.831Z,3.90
2019-01-31T13:43:40.116Z,3.90
2019-01-31T13:46:19.984Z,3.90
2019-01-31T13:48:59.715Z,3.80
2019-01-31T13:51:38.767Z,3.80
2019-01-31T13:54:17.787Z,3.80
2019-01-31T13:56:57.064Z,3.80
2019-01-31T13:59:36.231Z,3.60
2019-01-31T14:02:15.916Z,3.80
2019-01-31T14:04:56.083Z,3.80
2019-01-31T14:07:35.999Z,4.10
2019-01-31T14:10:15.774Z,4.00
2019-01-31T14:12:54.858Z,4.00
2019-01-31T14:15:34.231Z,3.90
2019-01-31T14:18:13.267Z,4.00
2019-01-31T14:20:52.355Z,3.70
2019-01-31T14:23:31.530Z,3.40
2019-01-31T14:26:10.504Z,3.50
2019-01-31T14:28:49.584Z,3.70
2019-01-31T14:31:28.462Z,3.70
2019-01-31T14:34:09.158Z,3.90
2019-01-31T14:36:48.645Z,3.90
2019-01-31T14:39:28.379Z,3.80
2019-01-31T14:42:07.585Z,4.00
2019-01-31T14:44:47.251Z,3.70
2019-01-31T14:47:27.133Z,3.70
2019-01-31T14:50:06.128Z,3.70
2019-01-31T14:52:45.332Z,3.70
2019-01-31T14:55:26.418Z,3.50
2019-01-31T14:58:05.326Z,3.60
2019-01-31T15:00:44.401Z,3.50
2019-01-31T15:03:23.357Z,3.50
2019-01-31T15:06:02.328Z,3.80
2019-01-31T15:08:41.571Z,3.50
2019-01-31T15:11:20.463Z,3.50
2019-01-31T15:13:59.516Z,3.30
2019-01-31T15:16:38.650Z,3.40
2019-01-31T15:19:17.592Z,3.40
2019-01-31T15:21:54.710Z,3.20
2019-01-31T15:24:40.599Z,3.20
2019-01-31T15:27:26.516Z,3.40
2019-01-31T15:30:34.190Z,3.40
2019-01-31T15:33:20.773Z,3.30
2019-01-31T15:36:06.672Z,3.60
2019-01-31T15:38:52.588Z,3.20
2019-01-31T15:41:38.743Z,2.90
2019-01-31T15:44:24.872Z,3.00
2019-01-31T15:47:10.784Z,3.20
2019-01-31T15:49:56.726Z,2.90
2019-01-31T15:52:43.472Z,3.00
2019-01-31T15:55:29.619Z,3.20
2019-01-31T15:58:15.839Z,3.10
2019-01-31T16:01:02.057Z,3.20
2019-01-31T16:03:48.115Z,3.20
2019-01-31T16:06:34.026Z,3.10
2019-01-31T16:09:20.247Z,3.10
2019-01-31T16:12:06.497Z,3.10
2019-01-31T16:14:54.827Z,2.80
2019-01-31T16:17:40.327Z,2.90
2019-01-31T16:20:26.227Z,2.80
2019-01-31T16:23:05.963Z,2.80
2019-01-31T16:25:47.601Z,2.60
2019-01-31T16:28:25.885Z,2.60
2019-01-31T16:31:04.998Z,2.50
2019-01-31T16:33:44.401Z,2.50
2019-01-31T16:36:24.386Z,2.30
2019-01-31T16:39:04.294Z,2.30
2019-01-31T16:41:44.041Z,2.20
2019-01-31T16:44:23.863Z,2.30
2019-01-31T16:47:04.012Z,2.20
2019-01-31T16:49:44.079Z,2.30
2019-01-31T16:52:24.038Z,2.40
2019-01-31T16:55:03.171Z,2.40
2019-01-31T16:57:42.289Z,2.60
2019-01-31T17:00:21.559Z,2.40
2019-01-31T17:03:01.398Z,2.40
2019-01-31T17:05:40.523Z,2.40
2019-01-31T17:08:19.807Z,2.40
2019-01-31T17:10:59.967Z,2.40
2019-01-31T17:16:21.572Z,2.30
2019-01-31T17:19:00.937Z,2.20
2019-01-31T17:21:40.711Z,2.40
2019-01-31T17:24:19.739Z,2.20
2019-01-31T17:26:59.119Z,2.00
2019-01-31T17:29:39.054Z,1.90
2019-01-31T17:32:18.031Z,1.50
2019-01-31T17:34:57.427Z,1.20
2019-01-31T17:37:36.347Z,0.70
2019-01-31T17:40:15.707Z,0.60
2019-01-31T17:42:54.855Z,0.20
2019-01-31T17:45:40.837Z,0.10
2019-01-31T17:48:26.739Z,0.00
2019-01-31T17:54:20.351Z,-0.30
2019-01-31T17:57:06.659Z,-0.40
2019-01-31T17:59:52.595Z,-0.30
2019-01-31T18:05:31.185Z,-0.40
2019-01-31T18:08:17.153Z,-0.40
2019-01-31T18:13:55.283Z,-0.40
2019-01-31T18:19:33.396Z,-0.40
2019-01-31T18:25:11.412Z,-0.20
2019-01-31T18:30:49.282Z,-0.30
2019-01-31T18:36:27.517Z,-0.50
2019-01-31T18:42:05.690Z,-0.50
2019-01-31T18:44:45.879Z,-0.50
2019-01-31T18:47:26.010Z,-0.60
2019-01-31T18:50:07.069Z,-0.80
2019-01-31T18:52:48.779Z,-0.70
2019-01-31T18:55:28.014Z,-0.80
2019-01-31T18:58:11.378Z,-1.00
2019-01-31T19:00:50.870Z,-1.10
2019-01-31T19:03:33.129Z,-1.00
2019-01-31T19:06:12.035Z,-1.10
2019-01-31T19:08:51.336Z,-1.00
2019-01-31T19:11:31.078Z,-0.90
2019-01-31T19:14:10.016Z,-1.00
2019-01-31T19:16:49.124Z,-1.10
2019-01-31T19:19:28.375Z,-1.20
2019-01-31T19:22:08.383Z,-1.10
2019-01-31T19:24:47.589Z,-1.30
2019-01-31T19:27:27.404Z,-1.40
2019-01-31T19:30:07.407Z,-1.40
2019-01-31T19:32:47.390Z,-1.40
2019-01-31T19:35:27.203Z,-1.40
2019-01-31T19:38:04.729Z,-1.20
2019-01-31T19:40:50.645Z,-1.20
2019-01-31T19:43:36.541Z,-1.00
2019-01-31T19:46:22.680Z,-0.90
2019-01-31T19:49:08.571Z,-1.00
2019-01-31T19:51:54.480Z,-1.00
2019-01-31T19:54:40.399Z,-1.10
2019-01-31T19:57:26.622Z,-1.10
2019-01-31T20:00:34.301Z,-0.80
2019-01-31T20:03:20.456Z,-0.70
2019-01-31T20:06:06.369Z,-0.60
2019-01-31T20:08:53.724Z,-0.50
2019-01-31T20:11:40.094Z,-0.20
2019-01-31T20:14:25.982Z,-0.20
2019-01-31T20:17:11.895Z,-0.30
2019-01-31T20:19:57.803Z,-0.10
2019-01-31T20:22:43.845Z,-0.30
2019-01-31T20:25:29.784Z,-0.20
2019-01-31T20:28:15.692Z,-0.10
2019-01-31T20:31:01.681Z,0.00
2019-01-31T20:33:47.587Z,0.10
2019-01-31T20:36:33.492Z,0.10
2019-01-31T20:39:19.635Z,0.20
2019-01-31T20:42:05.523Z,0.10
2019-01-31T20:44:51.439Z,0.10
2019-01-31T20:47:37.325Z,0.20
2019-01-31T20:50:43.344Z,0.20
2019-01-31T20:53:29.490Z,0.20
2019-01-31T20:56:15.483Z,0.30
2019-01-31T20:59:01.395Z,0.40
2019-01-31T21:01:47.515Z,0.40
2019-01-31T21:04:33.421Z,0.30
2019-01-31T21:07:19.553Z,0.40
2019-01-31T21:10:27.239Z,0.40
2019-01-31T21:13:13.364Z,0.50
2019-01-31T21:15:59.263Z,0.50
2019-01-31T21:18:45.147Z,0.60
2019-01-31T21:21:31.061Z,0.70
2019-01-31T21:24:16.943Z,0.60
2019-01-31T21:27:02.848Z,0.90
2019-01-31T21:29:48.742Z,0.80
2019-01-31T21:32:34.648Z,0.90
2019-01-31T21:35:13.592Z,0.90
2019-01-31T21:37:52.679Z,1.00
2019-01-31T21:40:31.645Z,1.00
2019-01-31T21:43:10.975Z,1.00
2019-01-31T21:45:49.957Z,1.00
2019-01-31T21:48:30.511Z,1.10
2019-01-31T21:51:10.061Z,1.00
2019-01-31T21:53:49.999Z,1.00
2019-01-31T21:56:29.052Z,1.10
2019-01-31T21:59:08.936Z,1.10
2019-01-31T22:01:49.033Z,0.90
2019-01-31T22:04:29.059Z,1.00
2019-01-31T22:07:09.059Z,1.00
2019-01-31T22:09:48.079Z,1.10
2019-01-31T22:12:27.078Z,1.00
2019-01-31T22:15:07.843Z,1.20
2019-01-31T22:17:47.204Z,1.10
2019-01-31T22:20:27.148Z,1.20
2019-01-31T22:23:07.266Z,1.40
2019-01-31T22:25:47.230Z,1.20
2019-01-31T22:28:24.316Z,1.10
2019-01-31T22:31:10.434Z,1.30
2019-01-31T22:33:56.360Z,1.20
2019-01-31T22:36:42.465Z,1.10
2019-01-31T22:39:28.372Z,1.20
2019-01-31T22:42:14.263Z,1.10
2019-01-31T22:45:00.499Z,1.20
2019-01-31T22:47:46.416Z,1.20
2019-01-31T22:50:32.344Z,1.30
2019-01-31T22:53:18.323Z,1.40
2019-01-31T22:56:04.231Z,1.50
2019-01-31T22:58:50.125Z,1.30
2019-01-31T23:04:30.780Z,1.40
2019-01-31T23:07:16.730Z,1.30
2019-01-31T23:10:24.407Z,1.40
2019-01-31T23:13:10.512Z,1.60
2019-01-31T23:15:56.517Z,1.40
2019-01-31T23:18:49.428Z,1.50
2019-01-31T23:21:35.439Z,1.20
2019-01-31T23:24:01.450Z,1.30
2019-01-31T23:26:27.662Z,1.30
2019-01-31T23:28:54.071Z,1.40
2019-01-31T23:31:20.099Z,1.40
2019-01-31T23:33:46.122Z,1.50
2019-01-31T23:36:12.438Z,1.50
2019-01-31T23:38:38.458Z,1.50
2019-01-31T23:41:05.238Z,1.50
2019-01-31T23:43:31.287Z,1.50
2019-01-31T23:45:57.304Z,1.60
2019-01-31T23:48:23.322Z,1.60
2019-01-31T23:50:49.611Z,1.60
2019-01-31T23:53:15.641Z,1.50
2019-01-31T23:55:41.966Z,1.40
2019-01-31T23:58:08.311Z,1.30
